Terminal Aerodrome Forecast
Issued by NWS

Home | Current Version | Previous Version | Text Only | Print | Product List | Glossary On
Versions: 1 2 3 4 5 6 7 8 9 10 11 12 13 14 15 16 17 18 19 20 21 22 23 24 25
000
FTUS45 KREV 260523
TAFRNO
TAF
KRNO 260523Z 2606/2706 VRB03KT P6SM SCT060 SCT200
     FM262000 31008G14KT P6SM SCT080 BKN150
     FM270100 32009G16KT P6SM SCT150=

USA.gov is the U.S. government's official web portal to all federal, state and local government web resources and services.